This is the latest recevied weather packets stored in our database for station/object SP6W-10. If no packets are shown the sender has not sent any weather packets the latest 10 day(s).
| Time | Temp. | Humidity | Pressure | Rain* | Wind** | Luminosity | Snow |
|---|---|---|---|---|---|---|---|
| 1778022782 | 30° C | 27% | 1006.3 hPa | - | - | - | - |
| 1778020982 | 30° C | 27% | 1006.4 hPa | - | - | - | - |
| 1778019182 | 30° C | 27% | 1006.7 hPa | - | - | - | - |
| 1778017382 | 30° C | 28% | 1007 hPa | - | - | - | - |
| 1778015583 | 30.56° C | 27% | 1007.2 hPa | - | - | - | - |
| 1778013783 | 30.56° C | 28% | 1007.4 hPa | - | - | - | - |
| 1778011983 | 30° C | 28% | 1007.3 hPa | - | - | - | - |
| 1778010183 | 28.89° C | 30% | 1007.1 hPa | - | - | - | - |
| 1778008382 | 30° C | 29% | 1007 hPa | - | - | - | - |
| 1778006583 | 30° C | 29% | 1006.9 hPa | - | - | - | - |
| 1778004782 | 30.56° C | 29% | 1007.3 hPa | - | - | - | - |
| 1778002982 | 31.67° C | 27% | 1007.2 hPa | - | - | - | - |
| 1778001183 | 31.67° C | 28% | 1006.8 hPa | - | - | - | - |
| 1777999383 | 32.78° C | 27% | 1006.6 hPa | - | - | - | - |
| 1777992182 | 34.44° C | 21% | 1006.7 hPa | - | - | - | - |
| 1777990383 | 33.89° C | 22% | 1006.9 hPa | - | - | - | - |
| 1777988582 | 31.67° C | 27% | 1007.1 hPa | - | - | - | - |
| 1777983182 | 32.22° C | 25% | 1007.7 hPa | - | - | - | - |
| 1777981382 | 32.22° C | 26% | 1007.8 hPa | - | - | - | - |
| 1777979582 | 32.22° C | 26% | 1008 hPa | - | - | - | - |
| 1777977782 | 31.67° C | 25% | 1008.2 hPa | - | - | - | - |
| 1777975982 | 31.11° C | 25% | 1008.2 hPa | - | - | - | - |
| 1777974183 | 30.56° C | 27% | 1008.5 hPa | - | - | - | - |
| 1777972383 | 30.56° C | 27% | 1008.9 hPa | - | - | - | - |
| 1777970582 | 30° C | 28% | 1009.1 hPa | - | - | - | - |
* Rain since midnight (hover to see other rain measurements)
** Current wind speed in m/s (hover to see current wind gust speed)